Time,TemperatureF,DewpointF,PressureIn,WindDirection,WindDirectionDegrees,WindSpeedMPH,WindSpeedGustMPH,Humidity,HourlyPrecipIn,Conditions,Clouds,dailyrainin,SoftwareType,DateUTC
2013-08-27 00:12:00,71.2,64.3,29.90,NW,315,0.0,-999.0,79,-99.99,,,0.00,Acu-Link.com,2013-08-27 04:12:00,
2013-08-27 00:27:00,70.5,65.1,29.90,NW,315,0.0,-999.0,83,-99.99,,,0.00,Acu-Link.com,2013-08-27 04:27:00,
2013-08-27 00:42:00,70.3,64.9,29.90,NW,315,0.0,-999.0,83,-99.99,,,0.00,Acu-Link.com,2013-08-27 04:42:00,
2013-08-27 00:57:00,69.6,64.9,29.90,NW,315,0.0,-999.0,85,-99.99,,,0.00,Acu-Link.com,2013-08-27 04:57:00,
2013-08-27 01:12:00,69.4,65.7,29.90,NW,315,0.0,-999.0,88,-99.99,,,0.00,Acu-Link.com,2013-08-27 05:12:00,
2013-08-27 01:27:00,69.3,65.3,29.90,NW,315,0.0,-999.0,87,-99.99,,,0.00,Acu-Link.com,2013-08-27 05:27:00,
2013-08-27 01:42:00,68.5,65.1,29.89,NW,315,0.0,-999.0,89,-99.99,,,0.00,Acu-Link.com,2013-08-27 05:42:00,
2013-08-27 01:58:00,69.1,65.4,29.89,NW,315,0.0,-999.0,88,-99.99,,,0.00,Acu-Link.com,2013-08-27 05:58:00,
2013-08-27 02:13:00,68.5,65.1,29.89,NW,315,0.0,-999.0,89,-99.99,,,0.00,Acu-Link.com,2013-08-27 06:13:00,
2013-08-27 02:28:00,68.4,65.3,29.88,NW,315,0.0,-999.0,90,-99.99,,,0.00,Acu-Link.com,2013-08-27 06:28:00,
2013-08-27 02:43:00,68.4,65.0,29.87,NW,315,0.0,-999.0,89,-99.99,,,0.00,Acu-Link.com,2013-08-27 06:43:00,
2013-08-27 02:58:00,67.8,64.8,29.88,NW,315,0.0,-999.0,90,-99.99,,,0.00,Acu-Link.com,2013-08-27 06:58:00,
2013-08-27 03:13:00,68.7,65.6,29.87,NW,315,0.0,-999.0,90,-99.99,,,0.00,Acu-Link.com,2013-08-27 07:13:00,
2013-08-27 03:28:00,68.4,65.3,29.86,WSW,247,0.0,-999.0,90,-99.99,,,0.00,Acu-Link.com,2013-08-27 07:28:00,
2013-08-27 03:43:00,68.4,65.7,29.85,WSW,247,0.0,-999.0,91,-99.99,,,0.00,Acu-Link.com,2013-08-27 07:43:00,
2013-08-27 03:58:00,68.5,65.1,29.85,NNW,337,1.1,-999.0,89,-99.99,,,0.00,Acu-Link.com,2013-08-27 07:58:00,
2013-08-27 04:16:00,68.5,65.1,29.86,NNE,22,0.0,-999.0,89,-99.99,,,0.00,Acu-Link.com,2013-08-27 08:16:00,
2013-08-27 04:31:00,68.5,65.1,29.85,NE,45,0.0,-999.0,89,-99.99,,,0.00,Acu-Link.com,2013-08-27 08:31:00,
2013-08-27 04:46:00,68.4,65.0,29.86,ESE,112,0.0,-999.0,89,-99.99,,,0.00,Acu-Link.com,2013-08-27 08:46:00,
2013-08-27 05:02:00,67.6,64.2,29.86,East,90,0.0,-999.0,89,-99.99,,,0.00,Acu-Link.com,2013-08-27 09:02:00,
2013-08-27 05:17:00,67.3,64.3,29.86,NNW,337,0.0,-999.0,90,-99.99,,,0.00,Acu-Link.com,2013-08-27 09:17:00,
2013-08-27 05:32:00,67.1,64.1,29.86,WSW,247,0.0,-999.0,90,-99.99,,,0.00,Acu-Link.com,2013-08-27 09:32:00,
2013-08-27 05:47:00,66.9,64.2,29.86,West,270,0.0,-999.0,91,-99.99,,,0.00,Acu-Link.com,2013-08-27 09:47:00,
2013-08-27 06:02:00,66.4,64.0,29.86,North,0,0.0,-999.0,92,-99.99,,,0.00,Acu-Link.com,2013-08-27 10:02:00,
2013-08-27 06:18:00,66.4,63.7,29.86,SW,225,0.0,-999.0,91,-99.99,,,0.00,Acu-Link.com,2013-08-27 10:18:00,
2013-08-27 06:33:00,66.6,63.6,29.86,WSW,247,0.0,-999.0,90,-99.99,,,0.00,Acu-Link.com,2013-08-27 10:33:00,
2013-08-27 06:48:00,66.9,63.2,29.87,SW,225,0.0,-999.0,88,-99.99,,,0.00,Acu-Link.com,2013-08-27 10:48:00,
2013-08-27 07:03:00,67.3,63.6,29.86,NNE,22,0.0,-999.0,88,-99.99,,,0.00,Acu-Link.com,2013-08-27 11:03:00,
2013-08-27 07:18:00,67.6,64.6,29.87,NNE,22,0.0,-999.0,90,-99.99,,,0.00,Acu-Link.com,2013-08-27 11:18:00,
2013-08-27 07:33:00,69.1,66.4,29.86,South,180,0.0,-999.0,91,-99.99,,,0.00,Acu-Link.com,2013-08-27 11:33:00,
2013-08-27 07:48:00,70.5,67.7,29.87,SSW,202,1.7,-999.0,91,-99.99,,,0.00,Acu-Link.com,2013-08-27 11:48:00,
2013-08-27 08:03:00,72.1,67.3,29.86,NNE,22,4.2,-999.0,85,-99.99,,,0.00,Acu-Link.com,2013-08-27 12:03:00,
2013-08-27 08:18:00,72.5,66.3,29.86,West,270,2.2,-999.0,81,-99.99,,,0.00,Acu-Link.com,2013-08-27 12:18:00,
2013-08-27 08:33:00,72.9,66.4,29.87,ESE,112,1.1,-999.0,80,-99.99,,,0.00,Acu-Link.com,2013-08-27 12:33:00,
2013-08-27 08:49:00,73.2,66.6,29.86,West,270,2.2,-999.0,80,-99.99,,,0.00,Acu-Link.com,2013-08-27 12:49:00,
2013-08-27 09:04:00,74.5,66.8,29.86,South,180,1.7,-999.0,77,-99.99,,,0.00,Acu-Link.com,2013-08-27 13:04:00,
2013-08-27 09:19:00,75.7,67.2,29.86,West,270,0.0,-999.0,75,-99.99,,,0.00,Acu-Link.com,2013-08-27 13:19:00,
2013-08-27 09:34:00,76.8,66.7,29.86,SW,225,1.7,-999.0,71,-99.99,,,0.00,Acu-Link.com,2013-08-27 13:34:00,
2013-08-27 09:49:00,78.1,67.9,29.86,WSW,247,2.7,-999.0,71,-99.99,,,0.00,Acu-Link.com,2013-08-27 13:49:00,
2013-08-27 10:04:00,78.6,67.6,29.86,WSW,247,2.7,-999.0,69,-99.99,,,0.00,Acu-Link.com,2013-08-27 14:04:00,
2013-08-27 10:19:00,79.2,66.8,29.87,West,270,3.2,-999.0,66,-99.99,,,0.00,Acu-Link.com,2013-08-27 14:19:00,
2013-08-27 10:35:00,79.2,66.4,29.86,South,180,3.2,-999.0,65,-99.99,,,0.00,Acu-Link.com,2013-08-27 14:35:00,
2013-08-27 10:50:00,79.7,65.5,29.84,South,180,6.3,-999.0,62,-99.99,,,0.00,Acu-Link.com,2013-08-27 14:50:00,
2013-08-27 11:05:00,81.5,64.8,29.85,WNW,292,2.7,-999.0,57,-99.99,,,0.00,Acu-Link.com,2013-08-27 15:05:00,
2013-08-27 11:20:00,80.8,65.6,29.84,South,180,4.2,-999.0,60,-99.99,,,0.00,Acu-Link.com,2013-08-27 15:20:00,
2013-08-27 11:35:00,81.5,66.3,29.84,SSW,202,4.7,-999.0,60,-99.99,,,0.00,Acu-Link.com,2013-08-27 15:35:00,
2013-08-27 11:50:00,81.7,66.9,29.84,SW,225,6.3,-999.0,61,-99.99,,,0.00,Acu-Link.com,2013-08-27 15:50:00,
2013-08-27 12:05:00,82.0,65.7,29.82,South,180,4.2,-999.0,58,-99.99,,,0.00,Acu-Link.com,2013-08-27 16:05:00,
2013-08-27 12:20:00,82.9,65.6,29.82,SSW,202,6.3,-999.0,56,-99.99,,,0.00,Acu-Link.com,2013-08-27 16:20:00,
2013-08-27 12:36:00,82.9,67.1,29.81,West,270,2.2,-999.0,59,-99.99,,,0.00,Acu-Link.com,2013-08-27 16:36:00,
2013-08-27 12:51:00,83.3,65.9,29.81,WSW,247,3.7,-999.0,56,-99.99,,,0.00,Acu-Link.com,2013-08-27 16:51:00,
2013-08-27 13:06:00,82.9,65.6,29.81,SW,225,7.8,-999.0,56,-99.99,,,0.00,Acu-Link.com,2013-08-27 17:06:00,
2013-08-27 13:21:00,84.2,66.8,29.82,SW,225,6.3,-999.0,56,-99.99,,,0.00,Acu-Link.com,2013-08-27 17:21:00,
2013-08-27 13:36:00,83.1,66.8,29.81,West,270,5.3,-999.0,58,-99.99,,,0.00,Acu-Link.com,2013-08-27 17:36:00,
2013-08-27 13:52:00,83.3,66.4,29.81,SW,225,8.9,-999.0,57,-99.99,,,0.00,Acu-Link.com,2013-08-27 17:52:00,
2013-08-27 14:07:00,82.2,65.4,29.80,SW,225,7.8,-999.0,57,-99.99,,,0.00,Acu-Link.com,2013-08-27 18:07:00,
2013-08-27 14:22:00,83.1,65.8,29.80,WSW,247,6.8,-999.0,56,-99.99,,,0.00,Acu-Link.com,2013-08-27 18:22:00,
2013-08-27 14:37:00,83.8,64.3,29.79,SW,225,6.8,-999.0,52,-99.99,,,0.00,Acu-Link.com,2013-08-27 18:37:00,
2013-08-27 14:52:00,83.5,66.1,29.79,SW,225,5.3,-999.0,56,-99.99,,,0.00,Acu-Link.com,2013-08-27 18:52:00,
2013-08-27 15:07:00,82.9,65.0,29.78,SSE,157,3.7,-999.0,55,-99.99,,,0.00,Acu-Link.com,2013-08-27 19:07:00,
2013-08-27 15:23:00,82.9,65.0,29.78,SW,225,9.9,-999.0,55,-99.99,,,0.00,Acu-Link.com,2013-08-27 19:23:00,
2013-08-27 15:38:00,82.4,65.1,29.77,South,180,7.8,-999.0,56,-99.99,,,0.00,Acu-Link.com,2013-08-27 19:38:00,
2013-08-27 15:53:00,81.7,65.5,29.78,SSW,202,6.8,-999.0,58,-99.99,,,0.00,Acu-Link.com,2013-08-27 19:53:00,
2013-08-27 16:08:00,82.0,65.2,29.78,SSE,157,2.7,-999.0,57,-99.99,,,0.00,Acu-Link.com,2013-08-27 20:08:00,
2013-08-27 16:23:00,81.3,65.1,29.77,SW,225,4.2,-999.0,58,-99.99,,,0.00,Acu-Link.com,2013-08-27 20:23:00,
2013-08-27 16:38:00,82.0,65.2,29.77,South,180,7.3,-999.0,57,-99.99,,,0.00,Acu-Link.com,2013-08-27 20:38:00,
2013-08-27 16:53:00,81.1,65.4,29.78,SSW,202,5.3,-999.0,59,-99.99,,,0.00,Acu-Link.com,2013-08-27 20:53:00,
2013-08-27 17:09:00,81.5,65.8,29.77,West,270,6.8,-999.0,59,-99.99,,,0.00,Acu-Link.com,2013-08-27 21:09:00,
2013-08-27 17:54:00,80.1,66.3,29.77,WSW,247,7.3,-999.0,63,-99.99,,,0.00,Acu-Link.com,2013-08-27 21:54:00,
2013-08-27 18:09:00,80.1,65.9,29.76,SSW,202,11.9,-999.0,62,-99.99,,,0.00,Acu-Link.com,2013-08-27 22:09:00,
2013-08-27 18:24:00,79.9,66.6,29.76,SSW,202,7.3,-999.0,64,-99.99,,,0.00,Acu-Link.com,2013-08-27 22:24:00,
2013-08-27 18:39:00,79.7,67.8,29.76,SSW,202,7.8,-999.0,67,-99.99,,,0.00,Acu-Link.com,2013-08-27 22:39:00,
2013-08-27 18:55:00,79.3,67.4,29.77,West,270,5.3,-999.0,67,-99.99,,,0.00,Acu-Link.com,2013-08-27 22:55:00,
2013-08-27 19:10:00,79.0,68.4,29.77,West,270,2.7,-999.0,70,-99.99,,,0.00,Acu-Link.com,2013-08-27 23:10:00,
2013-08-27 19:25:00,78.8,69.0,29.78,SSE,157,4.7,-999.0,72,-99.99,,,0.00,Acu-Link.com,2013-08-27 23:25:00,
2013-08-27 19:40:00,78.6,68.0,29.78,SW,225,4.7,-999.0,70,-99.99,,,0.00,Acu-Link.com,2013-08-27 23:40:00,
2013-08-27 19:55:00,78.4,67.8,29.77,SSW,202,5.8,-999.0,70,-99.99,,,0.00,Acu-Link.com,2013-08-27 23:55:00,
2013-08-27 20:10:00,78.4,67.8,29.78,SW,225,5.8,-999.0,70,-99.99,,,0.00,Acu-Link.com,2013-08-28 00:10:00,
2013-08-27 20:26:00,78.4,69.0,29.77,SW,225,5.8,-999.0,73,-99.99,,,0.00,Acu-Link.com,2013-08-28 00:26:00,
2013-08-27 20:41:00,78.3,68.9,29.77,SW,225,3.7,-999.0,73,-99.99,,,0.00,Acu-Link.com,2013-08-28 00:41:00,
2013-08-27 20:56:00,78.3,69.3,29.78,SSW,202,4.2,-999.0,74,-99.99,,,0.00,Acu-Link.com,2013-08-28 00:56:00,
2013-08-27 21:11:00,78.3,69.3,29.78,SSW,202,5.8,-999.0,74,-99.99,,,0.00,Acu-Link.com,2013-08-28 01:11:00,
2013-08-27 21:26:00,78.3,69.3,29.78,WSW,247,5.3,-999.0,74,-99.99,,,0.00,Acu-Link.com,2013-08-28 01:26:00,
2013-08-27 21:41:00,78.3,69.3,29.78,West,270,3.2,-999.0,74,-99.99,,,0.00,Acu-Link.com,2013-08-28 01:41:00,
2013-08-27 21:56:00,78.3,68.5,29.78,SW,225,6.8,-999.0,72,-99.99,,,0.00,Acu-Link.com,2013-08-28 01:56:00,
2013-08-27 22:11:00,78.3,69.3,29.77,SSW,202,8.9,-999.0,74,-99.99,,,0.00,Acu-Link.com,2013-08-28 02:11:00,
2013-08-27 22:26:00,78.3,68.9,29.78,SW,225,6.8,-999.0,73,-99.99,,,0.00,Acu-Link.com,2013-08-28 02:26:00,
2013-08-27 22:42:00,78.3,69.3,29.78,SW,225,5.8,-999.0,74,-99.99,,,0.00,Acu-Link.com,2013-08-28 02:42:00,
2013-08-27 22:57:00,78.3,68.9,29.79,WSW,247,6.3,-999.0,73,-99.99,,,0.00,Acu-Link.com,2013-08-28 02:57:00,
2013-08-27 23:12:00,78.1,69.5,29.80,SSW,202,4.7,-999.0,75,-99.99,,,0.00,Acu-Link.com,2013-08-28 03:12:00,
2013-08-27 23:27:00,78.1,69.5,29.79,WSW,247,8.3,-999.0,75,-99.99,,,0.00,Acu-Link.com,2013-08-28 03:27:00,
2013-08-27 23:42:00,78.1,69.5,29.79,SSW,202,5.8,-999.0,75,-99.99,,,0.00,Acu-Link.com,2013-08-28 03:42:00,
2013-08-27 23:57:00,78.1,69.9,29.78,SSW,202,7.3,-999.0,76,-99.99,,,0.00,Acu-Link.com,2013-08-28 03:57:00,